createdAt,value
2023-05-05T00:00:14.900Z,71.6758
2023-05-05T00:01:15.707Z,71.7197
2023-05-05T00:02:16.112Z,71.2166
2023-05-05T00:03:18.130Z,71.9316
2023-05-05T00:04:22.856Z,70.7082
2023-05-05T00:05:25.181Z,71.3632
2023-05-05T00:06:25.749Z,70.2750
2023-05-05T00:07:27.697Z,68.6909
2023-05-05T00:08:29.607Z,70.5967
2023-05-05T00:09:30.558Z,71.5796
2023-05-05T00:10:32.456Z,71.7322
2023-05-05T00:11:34.661Z,74.2378
2023-05-05T00:12:35.751Z,72.9124
2023-05-05T00:13:36.518Z,73.4958
2023-05-05T00:14:37.370Z,73.3183
2023-05-05T00:15:38.955Z,74.7457
2023-05-05T00:16:39.494Z,73.7920
2023-05-05T00:17:41.028Z,72.8553
2023-05-05T00:18:42.236Z,73.0957
2023-05-05T00:19:43.662Z,72.2758
2023-05-05T00:20:44.841Z,73.5194
2023-05-05T00:21:46.539Z,72.6190
2023-05-05T00:22:48.492Z,72.0439
2023-05-05T00:23:51.822Z,72.8064
2023-05-05T00:24:53.907Z,72.6767
2023-05-05T00:25:55.610Z,71.8521
2023-05-05T00:26:57.724Z,72.0089
2023-05-05T00:27:57.712Z,71.9640
2023-05-05T00:29:00.702Z,71.7747
2023-05-05T00:30:32.879Z,73.6837
2023-05-05T00:31:34.324Z,73.0201
2023-05-05T00:32:38.028Z,72.1691
2023-05-05T00:33:40.338Z,72.6974
2023-05-05T00:34:43.008Z,72.2646
2023-05-05T00:35:43.221Z,72.4754
2023-05-05T00:36:43.505Z,72.4351
2023-05-05T00:38:12.707Z,72.4885
2023-05-05T00:39:14.418Z,72.5557
2023-05-05T00:40:16.866Z,72.3078
2023-05-05T00:41:20.183Z,73.0574
2023-05-05T00:42:22.603Z,72.1685
2023-05-05T00:43:23.833Z,71.8578
2023-05-05T00:44:26.570Z,72.0033
2023-05-05T00:45:29.703Z,72.2884
2023-05-05T00:46:30.976Z,72.4624
2023-05-05T00:47:33.359Z,72.1752
2023-05-05T00:48:33.424Z,72.6029
2023-05-05T00:49:35.686Z,72.1104
2023-05-05T00:50:42.261Z,72.9827
2023-05-05T00:52:08.956Z,72.3656
2023-05-05T00:53:11.206Z,73.3915
2023-05-05T00:54:12.574Z,72.5005
2023-05-05T00:55:13.808Z,72.5483
2023-05-05T00:56:17.978Z,72.0482
2023-05-05T00:57:19.610Z,72.5852
2023-05-05T00:58:19.678Z,74.1656
2023-05-05T00:59:20.481Z,73.3843
2023-05-05T01:00:22.161Z,73.0650
2023-05-05T01:01:24.866Z,73.4743
2023-05-05T01:02:28.281Z,73.7088
2023-05-05T01:03:29.210Z,74.5352
2023-05-05T01:04:30.291Z,74.6868
2023-05-05T01:05:31.149Z,74.3352
2023-05-05T01:06:34.771Z,73.6587
2023-05-05T01:07:35.106Z,73.7771
2023-05-05T01:08:35.280Z,73.6252
2023-05-05T01:09:38.377Z,73.6147
2023-05-05T01:10:42.447Z,72.3175
2023-05-05T01:11:43.411Z,73.0717
2023-05-05T01:13:11.537Z,71.0597
2023-05-05T01:14:13.185Z,70.8353
2023-05-05T01:15:15.855Z,71.5292
2023-05-05T01:16:18.524Z,71.6213
2023-05-05T01:17:18.740Z,72.3034
2023-05-05T01:18:20.988Z,72.7112
2023-05-05T01:19:25.985Z,73.7250
2023-05-05T01:20:26.626Z,73.9696
2023-05-05T01:21:56.743Z,75.2483
2023-05-05T01:23:00.476Z,74.9419
2023-05-05T01:24:00.629Z,75.2288
2023-05-05T01:25:06.807Z,75.6072
2023-05-05T01:26:34.280Z,75.9188
2023-05-05T01:27:35.092Z,76.3172
2023-05-05T01:29:03.686Z,75.9183
2023-05-05T01:30:04.315Z,75.8163
2023-05-05T01:31:36.576Z,76.5273
2023-05-05T01:32:39.915Z,76.6675
2023-05-05T01:33:40.800Z,76.6989
2023-05-05T01:34:44.628Z,76.8704
2023-05-05T01:35:45.650Z,77.8426
2023-05-05T01:36:48.222Z,77.3132
2023-05-05T01:37:49.635Z,76.9411
2023-05-05T01:38:51.531Z,76.8040
2023-05-05T01:39:51.709Z,76.6593
2023-05-05T01:40:54.396Z,76.6099
2023-05-05T01:41:57.211Z,76.3847
2023-05-05T01:43:02.812Z,76.1341
2023-05-05T01:44:02.893Z,76.4772
2023-05-05T01:45:08.185Z,76.7384
2023-05-05T01:46:10.291Z,76.0595
2023-05-05T01:47:11.695Z,75.9715
2023-05-05T01:48:15.481Z,76.3999
2023-05-05T01:49:19.173Z,76.3738
2023-05-05T01:50:20.913Z,76.8626
2023-05-05T01:51:22.537Z,76.4985
2023-05-05T01:52:25.795Z,75.8940
2023-05-05T01:53:27.833Z,75.3495
2023-05-05T01:54:27.796Z,76.3808
2023-05-05T01:55:32.291Z,75.8852
2023-05-05T01:56:35.977Z,75.7669
2023-05-05T01:57:38.093Z,75.4855
2023-05-05T01:58:41.405Z,76.2892
2023-05-05T01:59:43.528Z,76.3671
2023-05-05T02:00:43.714Z,75.9281
2023-05-05T02:02:47.471Z,76.7506
2023-05-05T02:03:49.512Z,76.5808
2023-05-05T02:04:49.386Z,74.9656
2023-05-05T02:05:49.773Z,74.7961
2023-05-05T02:06:53.535Z,76.6206
2023-05-05T02:07:55.752Z,76.3590
2023-05-05T02:08:57.997Z,74.9475
2023-05-05T02:10:01.740Z,74.4544
2023-05-05T02:11:04.308Z,74.2449
2023-05-05T02:12:32.345Z,72.0313
2023-05-05T02:14:04.807Z,72.0424
2023-05-05T02:15:09.824Z,71.3081
2023-05-05T02:16:13.206Z,70.7260
2023-05-05T02:18:42.698Z,69.3393
2023-05-05T02:19:46.521Z,69.8974
2023-05-05T02:20:48.844Z,70.1835
2023-05-05T02:21:49.435Z,70.1049
2023-05-05T02:22:49.881Z,71.1299
2023-05-05T02:23:53.035Z,72.0389
2023-05-05T02:24:55.260Z,72.1215
2023-05-05T02:26:25.273Z,72.3977
2023-05-05T02:27:29.809Z,70.4387
2023-05-05T02:28:33.515Z,73.0443
2023-05-05T02:29:38.084Z,73.3557
2023-05-05T02:30:43.758Z,73.3452
2023-05-05T02:31:44.021Z,73.3320
2023-05-05T02:32:44.884Z,73.8472
2023-05-05T02:33:48.454Z,74.7793
2023-05-05T02:34:51.577Z,74.8753
2023-05-05T02:36:50.871Z,75.6648
2023-05-05T02:37:51.234Z,75.8546
2023-05-05T02:38:53.136Z,76.0153
2023-05-05T02:39:54.145Z,75.4970
2023-05-05T02:40:55.100Z,75.5089
2023-05-05T02:46:02.383Z,76.2449
2023-05-05T02:49:06.991Z,77.2428
2023-05-05T02:50:09.265Z,77.0704
2023-05-05T02:51:13.157Z,77.5984
2023-05-05T02:52:15.494Z,77.2208
2023-05-05T03:02:08.036Z,78.3430
2023-05-05T03:03:09.268Z,78.2537
2023-05-05T03:04:13.223Z,78.0284
2023-05-05T03:05:16.972Z,77.7041
2023-05-05T03:06:20.535Z,76.9287
2023-05-05T03:07:22.875Z,77.4314
2023-05-05T03:08:24.743Z,77.5453
2023-05-05T03:09:25.786Z,77.1875
2023-05-05T03:10:28.631Z,77.7045
2023-05-05T03:11:29.460Z,77.6671
2023-05-05T03:12:30.607Z,77.8383
2023-05-05T03:13:34.954Z,78.1954
2023-05-05T03:14:37.352Z,78.2937
2023-05-05T03:15:39.100Z,78.2459
2023-05-05T03:16:40.275Z,77.6091
2023-05-05T03:17:42.467Z,77.3641
2023-05-05T03:18:47.356Z,77.8369
2023-05-05T03:19:50.639Z,78.4744
2023-05-05T03:20:54.889Z,77.8713
2023-05-05T03:21:57.139Z,78.4098
2023-05-05T03:23:02.973Z,78.8298
2023-05-05T03:24:31.334Z,77.3382
2023-05-05T03:25:32.571Z,77.6960
2023-05-05T03:26:36.298Z,77.2569
2023-05-05T03:27:36.650Z,77.2084
2023-05-05T03:30:41.381Z,75.4814
2023-05-05T03:31:44.812Z,75.3428
2023-05-05T03:32:47.052Z,74.5456
2023-05-05T03:33:47.760Z,74.0888
2023-05-05T03:46:47.909Z,72.6435
2023-05-05T03:47:47.543Z,72.6001
2023-05-05T03:52:52.130Z,71.7532
2023-05-05T03:53:52.756Z,72.1131
2023-05-05T03:55:19.727Z,71.2215
2023-05-05T03:56:22.260Z,70.7949
2023-05-05T03:57:26.527Z,74.2629
2023-05-05T03:58:32.158Z,74.1497
2023-05-05T03:59:32.610Z,73.4700
2023-05-05T04:30:21.844Z,77.3995
2023-05-05T04:31:26.880Z,77.0291
2023-05-05T04:40:49.673Z,77.2641
2023-05-05T04:41:57.324Z,78.2666
2023-05-05T04:43:00.753Z,77.1001
2023-05-05T04:44:11.613Z,76.4708
2023-05-05T04:52:48.064Z,79.0827
2023-05-05T04:53:49.929Z,79.2163
2023-05-05T04:54:52.871Z,79.1459
2023-05-05T04:55:57.011Z,77.6251
2023-05-05T05:01:58.542Z,77.8371
2023-05-05T05:03:00.481Z,76.8510
2023-05-05T05:08:26.722Z,73.9518
2023-05-05T05:13:29.284Z,77.4622
2023-05-05T05:14:34.155Z,77.8622
2023-05-05T05:15:36.907Z,79.0435
2023-05-05T05:16:38.524Z,78.9742
2023-05-05T05:17:40.625Z,78.9620
2023-05-05T05:18:40.935Z,79.3718
2023-05-05T05:19:41.082Z,78.8882
2023-05-05T05:43:12.748Z,80.6392
2023-05-05T05:44:14.956Z,80.4728
2023-05-05T05:45:17.349Z,80.6537
2023-05-05T05:46:17.816Z,80.1530
2023-05-05T05:59:19.138Z,77.8005
2023-05-05T06:00:19.863Z,77.8771
2023-05-05T06:01:21.074Z,77.3358
2023-05-05T06:02:26.189Z,77.2218
2023-05-05T06:03:29.757Z,77.4330
2023-05-05T06:08:41.457Z,76.0662
2023-05-05T06:09:43.438Z,75.9569
2023-05-05T06:10:43.963Z,76.7106
2023-05-05T06:11:44.774Z,76.5246
2023-05-05T06:13:14.490Z,78.1229
2023-05-05T06:14:20.436Z,76.9449
2023-05-05T06:15:22.701Z,76.7683
2023-05-05T06:30:50.902Z,72.2491
2023-05-05T06:32:24.378Z,72.0768
2023-05-05T06:33:52.137Z,72.5721
2023-05-05T06:34:59.183Z,71.8717
2023-05-05T06:35:57.048Z,69.4872
2023-05-05T06:37:56.361Z,69.8310
2023-05-05T06:45:10.036Z,68.8555
2023-05-05T06:46:37.672Z,68.0486
2023-05-05T06:48:08.619Z,69.0719
2023-05-05T06:49:10.838Z,67.3851
2023-05-05T06:50:38.853Z,67.4933
2023-05-05T06:51:43.149Z,66.7016
2023-05-05T06:53:10.718Z,66.6018
2023-05-05T06:54:43.998Z,66.0298
2023-05-05T06:56:12.401Z,66.1396
2023-05-05T06:57:41.182Z,65.9302
2023-05-05T06:59:09.993Z,65.6521
2023-05-05T07:00:40.947Z,65.2273
2023-05-05T07:02:09.589Z,65.5004
2023-05-05T07:03:41.195Z,65.2387
2023-05-05T07:04:44.429Z,65.7319
2023-05-05T07:06:14.609Z,64.2924
2023-05-05T07:07:43.925Z,64.5486
2023-05-05T07:09:17.662Z,67.0568
2023-05-05T07:10:16.416Z,65.7301
2023-05-05T07:11:49.372Z,64.6025
2023-05-05T07:13:49.780Z,62.0533
2023-05-05T07:15:29.270Z,62.3123
2023-05-05T07:16:50.371Z,62.5544
2023-05-05T07:18:21.631Z,61.7210
2023-05-05T07:19:51.935Z,60.8321
2023-05-05T07:21:20.842Z,60.2291
2023-05-05T07:22:22.433Z,60.6035
2023-05-05T07:23:52.419Z,62.0693
2023-05-05T07:25:21.220Z,61.2432
2023-05-05T07:26:52.618Z,60.1415
2023-05-05T07:28:23.346Z,60.4189
2023-05-05T07:29:53.983Z,60.3305
2023-05-05T07:30:54.929Z,60.7338
2023-05-05T07:32:25.283Z,61.1602
2023-05-05T07:33:57.182Z,61.4316
2023-05-05T07:35:28.979Z,62.2219
2023-05-05T07:36:58.107Z,60.8740
2023-05-05T07:38:28.132Z,61.2319
2023-05-05T07:39:58.565Z,62.1170
2023-05-05T07:41:27.589Z,61.8952
2023-05-05T07:42:58.511Z,62.4426
2023-05-05T07:45:29.554Z,62.8781
2023-05-05T07:47:02.016Z,62.4449
2023-05-05T07:48:32.507Z,61.6929
2023-05-05T07:50:03.654Z,61.7779
2023-05-05T07:51:35.292Z,60.9113
2023-05-05T07:53:14.912Z,62.1610
2023-05-05T07:54:06.198Z,62.4762
2023-05-05T07:55:37.903Z,61.9360
2023-05-05T07:57:08.011Z,62.0615
2023-05-05T07:58:39.141Z,62.0836
2023-05-05T08:00:11.864Z,61.5005
2023-05-05T08:01:42.683Z,61.3623
2023-05-05T08:03:13.200Z,61.8900
2023-05-05T08:04:45.386Z,60.9703
2023-05-05T08:06:15.664Z,60.9082
2023-05-05T08:07:47.579Z,63.1227
2023-05-05T08:09:16.562Z,63.0137
2023-05-05T08:10:47.963Z,62.0551
2023-05-05T08:12:16.754Z,62.4236
2023-05-05T08:13:46.453Z,61.8096
2023-05-05T08:15:17.711Z,62.0313
2023-05-05T08:16:49.513Z,61.9511
2023-05-05T08:18:20.220Z,61.6414
2023-05-05T08:19:49.186Z,61.1545
2023-05-05T08:21:52.000Z,61.7598
2023-05-05T08:24:56.226Z,60.8298
2023-05-05T08:26:58.052Z,63.0538
2023-05-05T08:28:29.440Z,61.1910
2023-05-05T08:30:01.502Z,60.4798
2023-05-05T08:31:31.252Z,59.9295
2023-05-05T08:33:03.820Z,59.6941
2023-05-05T08:34:33.654Z,59.5577
2023-05-05T08:35:35.392Z,59.8309
2023-05-05T08:37:05.850Z,60.1543
2023-05-05T08:38:36.274Z,58.9818
2023-05-05T08:40:09.145Z,59.4908
2023-05-05T08:41:39.450Z,59.2048
2023-05-05T08:42:40.015Z,59.1306
2023-05-05T08:43:43.184Z,60.4014
2023-05-05T08:45:14.550Z,59.0941
2023-05-05T08:46:45.164Z,58.1217
2023-05-05T08:48:14.084Z,58.7918
2023-05-05T08:49:43.870Z,59.2055
2023-05-05T08:51:16.305Z,57.7984
2023-05-05T08:52:51.215Z,57.9824
2023-05-05T08:54:17.991Z,58.3292
2023-05-05T08:55:48.635Z,58.6127
2023-05-05T08:57:19.631Z,58.7462
2023-05-05T08:58:50.912Z,58.1087
2023-05-05T09:00:20.182Z,57.4197
2023-05-05T09:01:50.936Z,57.7190
2023-05-05T09:03:22.353Z,59.4605
2023-05-05T09:04:52.128Z,58.3271
2023-05-05T09:06:21.914Z,59.6885
2023-05-05T09:07:52.492Z,60.3611
2023-05-05T09:09:22.291Z,58.4103
2023-05-05T09:10:52.040Z,59.3069
2023-05-05T09:12:22.369Z,59.1398
2023-05-05T09:13:53.659Z,59.2825
2023-05-05T09:15:25.011Z,58.0882
2023-05-05T09:16:56.342Z,58.6114
2023-05-05T09:18:26.505Z,57.2422
2023-05-05T09:19:56.301Z,56.6848
2023-05-05T09:21:27.019Z,57.7028
2023-05-05T09:22:58.479Z,57.0788
2023-05-05T09:24:30.498Z,58.2279
2023-05-05T09:26:00.985Z,57.2855
2023-05-05T09:27:30.965Z,56.3500
2023-05-05T09:29:01.186Z,58.1884
2023-05-05T09:30:32.528Z,56.3580
2023-05-05T09:32:03.322Z,56.2974
2023-05-05T09:33:34.915Z,58.0477
2023-05-05T09:35:05.364Z,57.7712
2023-05-05T09:36:34.567Z,57.7163
2023-05-05T09:38:06.124Z,56.8663
2023-05-05T09:39:36.932Z,57.9960
2023-05-05T09:41:08.501Z,58.5941
2023-05-05T09:42:39.118Z,57.6454
2023-05-05T09:44:09.923Z,56.0656
2023-05-05T09:45:41.592Z,57.4294
2023-05-05T09:47:29.111Z,56.7251
2023-05-05T09:48:43.660Z,55.6004
2023-05-05T09:50:14.035Z,57.6991
2023-05-05T09:51:44.044Z,58.6517
2023-05-05T09:53:13.336Z,57.9970
2023-05-05T09:54:43.792Z,59.0506
2023-05-05T09:56:13.050Z,57.6502
2023-05-05T09:57:43.416Z,56.8333
2023-05-05T09:59:13.137Z,56.4899
2023-05-05T10:00:43.471Z,55.8793
2023-05-05T10:02:13.829Z,55.8316
2023-05-05T10:03:44.210Z,56.0927
2023-05-05T10:05:14.757Z,56.1744
2023-05-05T10:06:43.753Z,56.7588
2023-05-05T10:08:14.078Z,56.7207
2023-05-05T10:09:44.385Z,56.6283
2023-05-05T10:11:13.712Z,55.6895
2023-05-05T10:12:44.016Z,56.5065
2023-05-05T10:14:14.756Z,58.5440
2023-05-05T10:15:46.099Z,55.5519
2023-05-05T10:17:16.495Z,55.2229
2023-05-05T10:18:45.775Z,54.7625
2023-05-05T10:20:15.020Z,54.6572
2023-05-05T10:21:44.291Z,56.3722
2023-05-05T10:23:14.104Z,54.6011
2023-05-05T10:24:45.643Z,54.1474
2023-05-05T10:26:15.438Z,53.3129
2023-05-05T10:27:45.100Z,54.7376
2023-05-05T10:29:15.856Z,54.2771
2023-05-05T10:30:45.223Z,53.5879
2023-05-05T10:32:40.820Z,53.1065
2023-05-05T10:33:45.367Z,54.0972
2023-05-05T10:35:14.933Z,54.0497
2023-05-05T10:36:45.223Z,54.0176
2023-05-05T10:38:15.953Z,53.4576
2023-05-05T10:39:45.289Z,53.5542
2023-05-05T10:41:14.577Z,54.2438
2023-05-05T10:42:43.965Z,55.1095
2023-05-05T10:44:13.173Z,54.6833
2023-05-05T10:45:44.071Z,53.9659
2023-05-05T10:47:14.483Z,53.7395
2023-05-05T10:48:45.980Z,54.5661
2023-05-05T10:50:14.765Z,54.8329
2023-05-05T10:51:44.148Z,54.9332
2023-05-05T10:53:15.397Z,54.5931
2023-05-05T10:54:46.125Z,53.7218
2023-05-05T10:56:16.953Z,53.5607
2023-05-05T10:57:48.109Z,53.4013
2023-05-05T10:59:18.416Z,53.3928
2023-05-05T11:00:47.801Z,53.5946
2023-05-05T11:02:17.106Z,51.8179
2023-05-05T11:03:47.657Z,52.7509
2023-05-05T11:05:19.044Z,52.3874
2023-05-05T11:06:49.383Z,51.7178
2023-05-05T11:08:18.725Z,52.2728
2023-05-05T11:09:48.525Z,52.0492
2023-05-05T11:11:18.799Z,51.9788
2023-05-05T11:12:48.584Z,51.8181
2023-05-05T11:14:17.874Z,51.7294
2023-05-05T11:15:49.031Z,51.5373
2023-05-05T11:17:18.404Z,52.7621
2023-05-05T11:18:47.840Z,50.9450
2023-05-05T11:20:17.258Z,51.7658
2023-05-05T11:21:46.949Z,50.3877
2023-05-05T11:23:17.059Z,47.0379
2023-05-05T11:24:45.439Z,45.0561
2023-05-05T11:26:14.712Z,43.2584
2023-05-05T11:27:43.905Z,45.8821
2023-05-05T11:29:14.092Z,43.7330
2023-05-05T11:30:44.422Z,44.0358
2023-05-05T11:32:13.923Z,43.9367
2023-05-05T11:33:15.818Z,43.6810
2023-05-05T11:34:45.948Z,45.2534
2023-05-05T11:36:16.047Z,45.1559
2023-05-05T11:37:45.112Z,45.0777
2023-05-05T11:39:14.229Z,42.0295
2023-05-05T11:40:43.265Z,41.7431
2023-05-05T11:42:13.293Z,43.0738
2023-05-05T11:43:43.435Z,45.5723
2023-05-05T11:44:44.829Z,45.4043
2023-05-05T11:46:16.480Z,42.1200
2023-05-05T11:47:45.052Z,43.1550
2023-05-05T11:49:14.033Z,42.9044
2023-05-05T11:50:43.562Z,41.9178
2023-05-05T11:52:12.655Z,44.0046
2023-05-05T11:53:41.661Z,42.1525
2023-05-05T11:55:10.719Z,42.1375
2023-05-05T11:56:41.766Z,43.1462
2023-05-05T11:58:10.811Z,44.4316
2023-05-05T11:59:40.846Z,43.8700
2023-05-05T12:01:10.947Z,47.1839
2023-05-05T12:02:40.597Z,48.1476
2023-05-05T12:04:10.582Z,48.2712
2023-05-05T12:05:39.204Z,47.4460
2023-05-05T12:07:09.322Z,44.7188
2023-05-05T12:08:39.450Z,44.2029
2023-05-05T12:10:09.310Z,44.5300
2023-05-05T12:11:37.633Z,44.9477
2023-05-05T12:13:06.813Z,41.3285
2023-05-05T12:14:36.825Z,43.1857
2023-05-05T12:16:06.995Z,44.9748
2023-05-05T12:17:36.932Z,44.0508
2023-05-05T12:19:05.969Z,44.0774
2023-05-05T12:20:35.894Z,46.0161
2023-05-05T12:22:04.911Z,43.6660
2023-05-05T12:23:33.849Z,43.6205
2023-05-05T12:25:03.874Z,43.0842
2023-05-05T12:26:32.840Z,41.6487
2023-05-05T12:28:01.702Z,42.7604
2023-05-05T12:29:31.713Z,43.5663
2023-05-05T12:31:01.916Z,44.3749
2023-05-05T12:32:31.805Z,43.2718
2023-05-05T12:34:01.881Z,39.8828
2023-05-05T12:35:31.991Z,39.7837
2023-05-05T12:37:01.850Z,41.8332
2023-05-05T12:38:31.842Z,41.2128
2023-05-05T12:40:00.726Z,40.8861
2023-05-05T12:41:29.681Z,42.9436
2023-05-05T12:42:59.606Z,40.2165
2023-05-05T12:44:29.067Z,43.8089
2023-05-05T12:45:59.189Z,43.7108
2023-05-05T12:47:29.549Z,42.1629
2023-05-05T12:48:59.989Z,41.9857
2023-05-05T12:50:28.880Z,40.3682
2023-05-05T12:51:57.823Z,40.8690
2023-05-05T12:53:27.731Z,42.0396
2023-05-05T12:54:57.596Z,41.5556
2023-05-05T12:56:26.487Z,40.1729
2023-05-05T12:57:56.409Z,41.0347
2023-05-05T12:59:26.310Z,36.9487
2023-05-05T13:00:56.747Z,36.7639
2023-05-05T13:02:25.565Z,39.5894
2023-05-05T13:03:54.376Z,39.4447
2023-05-05T13:05:23.255Z,37.9815
2023-05-05T13:06:54.686Z,35.1726
2023-05-05T13:08:20.949Z,37.0284
2023-05-05T13:09:50.790Z,38.1792
2023-05-05T13:11:19.614Z,33.8600
2023-05-05T13:12:48.429Z,34.7825
2023-05-05T13:14:17.267Z,33.6233
2023-05-05T13:15:47.106Z,38.4878
2023-05-05T13:17:15.870Z,40.8099
2023-05-05T13:18:45.721Z,41.3849
2023-05-05T13:20:15.638Z,42.1720
2023-05-05T13:21:44.538Z,41.2342
2023-05-05T13:23:13.361Z,42.8521
2023-05-05T13:24:52.165Z,39.6355
2023-05-05T13:26:12.182Z,41.3175
2023-05-05T13:27:41.153Z,38.8808
2023-05-05T13:29:10.099Z,39.8755
2023-05-05T13:30:38.979Z,36.2810
2023-05-05T13:32:07.842Z,40.0994
2023-05-05T13:33:36.783Z,38.4543
2023-05-05T13:35:05.715Z,36.3243
2023-05-05T13:36:35.494Z,33.1307
2023-05-05T13:38:05.445Z,35.8349
2023-05-05T13:39:35.325Z,38.9714
2023-05-05T13:41:05.379Z,39.9156
2023-05-05T13:42:34.170Z,40.0715
2023-05-05T13:44:04.171Z,41.5348
2023-05-05T13:45:34.159Z,42.7590
2023-05-05T13:47:04.157Z,42.6535
2023-05-05T13:48:33.093Z,42.1247
2023-05-05T13:50:02.224Z,44.6922
2023-05-05T13:51:32.116Z,43.0333
2023-05-05T13:53:01.133Z,43.1837
2023-05-05T13:54:30.111Z,43.2582
2023-05-05T13:55:59.218Z,43.9847
2023-05-05T13:57:30.684Z,43.2262
2023-05-05T13:59:00.323Z,42.8773
2023-05-05T14:00:29.448Z,42.3585
2023-05-05T14:01:58.387Z,42.1864
2023-05-05T14:03:27.417Z,42.0454
2023-05-05T14:04:57.241Z,43.8073
2023-05-05T14:06:26.696Z,43.1591
2023-05-05T14:07:56.679Z,45.2117
2023-05-05T14:09:25.812Z,44.7426
2023-05-05T14:10:55.969Z,43.1895
2023-05-05T14:12:26.051Z,43.9150
2023-05-05T14:13:56.241Z,42.9950
2023-05-05T14:15:26.043Z,44.8650
2023-05-05T14:16:56.115Z,45.9914
2023-05-05T14:18:25.746Z,42.6902
2023-05-05T14:19:56.627Z,44.2472
2023-05-05T14:21:26.092Z,43.6250
2023-05-05T14:22:55.245Z,44.8709
2023-05-05T14:24:25.641Z,44.3136
2023-05-05T14:25:54.818Z,44.3725
2023-05-05T14:27:24.050Z,44.1232
2023-05-05T14:28:53.790Z,44.1200
2023-05-05T14:30:23.111Z,43.2982
2023-05-05T14:31:52.601Z,45.2066
2023-05-05T14:33:21.809Z,45.3508
2023-05-05T14:34:51.105Z,46.0807
2023-05-05T14:36:21.325Z,46.8658
2023-05-05T14:37:50.598Z,48.2695
2023-05-05T14:39:19.719Z,46.6623
2023-05-05T14:40:48.928Z,44.5983
2023-05-05T14:42:18.168Z,44.4150
2023-05-05T14:43:47.407Z,48.2097
2023-05-05T14:45:17.650Z,44.8152
2023-05-05T14:46:51.360Z,44.8703
2023-05-05T14:48:17.150Z,44.9000
2023-05-05T14:49:47.464Z,48.1297
2023-05-05T14:51:17.095Z,48.3690
2023-05-05T14:52:46.371Z,47.0698
2023-05-05T14:54:28.470Z,49.2114
2023-05-05T14:55:47.220Z,46.4232
2023-05-05T14:57:18.307Z,47.6160
2023-05-05T14:58:49.758Z,47.4297
2023-05-05T15:00:18.497Z,47.5517
2023-05-05T15:01:47.931Z,47.2836
2023-05-05T15:03:19.252Z,47.1443
2023-05-05T15:04:50.568Z,47.9965
2023-05-05T15:06:19.976Z,47.2655
2023-05-05T15:07:51.571Z,47.8090
2023-05-05T15:09:21.277Z,49.2354
2023-05-05T15:10:52.393Z,49.1907
2023-05-05T15:12:22.241Z,47.9258
2023-05-05T15:13:53.842Z,49.6217
2023-05-05T15:15:23.345Z,48.3148
2023-05-05T15:16:53.370Z,47.9733
2023-05-05T15:18:22.203Z,50.7157
2023-05-05T15:19:53.537Z,48.6500
2023-05-05T15:21:23.519Z,50.1809
2023-05-05T15:22:54.545Z,52.3624
2023-05-05T15:24:25.367Z,50.8021
2023-05-05T15:25:55.188Z,51.2763
2023-05-05T15:27:25.511Z,54.6624
2023-05-05T15:28:54.893Z,60.2464
2023-05-05T15:30:25.764Z,63.1250
2023-05-05T15:31:57.162Z,63.6343
2023-05-05T15:33:29.249Z,64.3985
2023-05-05T15:35:00.766Z,65.2349
2023-05-05T15:36:29.650Z,65.1154
2023-05-05T15:37:59.632Z,65.7936
2023-05-05T15:39:29.930Z,67.3060
2023-05-05T15:40:32.164Z,68.6123
2023-05-05T15:41:34.760Z,69.3384
2023-05-05T15:42:35.937Z,70.0742
2023-05-05T15:44:08.183Z,70.0830
2023-05-05T15:49:18.412Z,69.2762
2023-05-05T15:50:46.166Z,68.7321
2023-05-05T15:52:15.052Z,69.0586
2023-05-05T16:10:56.123Z,63.8087
2023-05-05T16:11:59.172Z,63.1725
2023-05-05T16:13:30.013Z,64.1764
2023-05-05T16:15:00.165Z,64.0406
2023-05-05T16:16:32.515Z,62.5619
2023-05-05T16:18:01.827Z,63.0362
2023-05-05T16:19:32.779Z,63.1834
2023-05-05T16:21:03.336Z,63.8623
2023-05-05T16:22:05.981Z,64.1156
2023-05-05T16:23:35.967Z,64.1296
2023-05-05T16:25:05.152Z,64.6764
2023-05-05T16:26:08.691Z,65.8053
2023-05-05T16:27:37.347Z,65.9104
2023-05-05T16:28:39.772Z,66.0774
2023-05-05T16:30:09.807Z,66.1600
2023-05-05T16:31:38.420Z,66.2904
2023-05-05T16:33:07.383Z,66.2698
2023-05-05T16:34:39.290Z,65.9446
2023-05-05T16:36:08.450Z,65.9285
2023-05-05T16:37:40.594Z,66.2820
2023-05-05T16:39:11.320Z,66.7344
2023-05-05T16:40:40.051Z,67.2065
2023-05-05T16:41:41.720Z,67.0902
2023-05-05T16:43:14.441Z,68.0066
2023-05-05T16:44:46.950Z,68.6830
2023-05-05T16:46:15.852Z,67.8284
2023-05-05T16:47:46.382Z,67.5944
2023-05-05T16:49:16.105Z,68.6485
2023-05-05T16:50:18.952Z,68.1405
2023-05-05T16:51:48.561Z,69.2161
2023-05-05T16:52:49.575Z,68.9089
2023-05-05T16:53:51.913Z,68.8247
2023-05-05T16:55:23.502Z,69.9729
2023-05-05T16:56:57.227Z,69.5220
2023-05-05T16:58:24.432Z,69.1950
2023-05-05T16:59:54.499Z,69.7304
2023-05-05T17:01:25.974Z,69.9494
2023-05-05T17:02:57.325Z,70.0294
2023-05-05T17:04:28.016Z,70.1002
2023-05-05T17:05:58.941Z,70.9591
2023-05-05T17:07:02.490Z,70.4995
2023-05-05T17:08:34.004Z,70.8543
2023-05-05T17:09:35.908Z,70.5011
2023-05-05T17:11:05.600Z,70.7967
2023-05-05T17:12:08.702Z,70.2965
2023-05-05T17:13:09.054Z,70.3210
2023-05-05T17:14:13.407Z,70.8657
2023-05-05T17:27:38.522Z,70.0008
2023-05-05T17:28:38.529Z,69.6223
2023-05-05T17:31:10.638Z,69.9953
2023-05-05T17:41:30.984Z,69.0796
2023-05-05T17:45:08.537Z,69.2574
2023-05-05T17:52:55.631Z,70.0158
2023-05-05T17:57:32.888Z,71.9278
